sensor_id;sensor_type;location;lat;lon;timestamp;pressure;altitude;pressure_sealevel;temperature;humidity
8366;BME280;4220;42.502;24.188;2023-02-08T00:00:06;96725.09;;;-3.64;78.06
8366;BME280;4220;42.502;24.188;2023-02-08T00:02:33;96721.94;;;-3.83;78.98
8366;BME280;4220;42.502;24.188;2023-02-08T00:05:00;96674.69;;;-4.15;79.31
8366;BME280;4220;42.502;24.188;2023-02-08T00:07:27;96727.31;;;-3.72;79.89
8366;BME280;4220;42.502;24.188;2023-02-08T00:09:54;96725.41;;;-3.56;79.95
8366;BME280;4220;42.502;24.188;2023-02-08T00:12:20;96732.53;;;-3.45;79.58
8366;BME280;4220;42.502;24.188;2023-02-08T00:14:47;96726.13;;;-3.40;79.01
8366;BME280;4220;42.502;24.188;2023-02-08T00:17:15;96728.19;;;-3.45;79.31
8366;BME280;4220;42.502;24.188;2023-02-08T00:19:42;96731.22;;;-3.38;79.42
8366;BME280;4220;42.502;24.188;2023-02-08T00:22:09;96721.31;;;-3.46;79.49
8366;BME280;4220;42.502;24.188;2023-02-08T00:24:36;96731.94;;;-3.36;79.65
8366;BME280;4220;42.502;24.188;2023-02-08T00:27:03;96730.38;;;-3.39;80.11
8366;BME280;4220;42.502;24.188;2023-02-08T00:29:30;96734.94;;;-3.42;80.40
8366;BME280;4220;42.502;24.188;2023-02-08T00:31:57;96743.75;;;-3.45;80.54
8366;BME280;4220;42.502;24.188;2023-02-08T00:34:25;96738.31;;;-3.54;80.17
8366;BME280;4220;42.502;24.188;2023-02-08T00:36:52;96743.19;;;-3.50;80.33
8366;BME280;4220;42.502;24.188;2023-02-08T00:39:18;96738.63;;;-3.46;80.15
8366;BME280;4220;42.502;24.188;2023-02-08T00:41:46;96692.13;;;-3.76;80.55
8366;BME280;4220;42.502;24.188;2023-02-08T00:44:13;96735.31;;;-3.48;79.93
8366;BME280;4220;42.502;24.188;2023-02-08T00:46:40;96751.16;;;-3.53;79.56
8366;BME280;4220;42.502;24.188;2023-02-08T00:49:06;96736.72;;;-3.71;80.90
8366;BME280;4220;42.502;24.188;2023-02-08T00:51:34;96751.19;;;-3.67;82.02
8366;BME280;4220;42.502;24.188;2023-02-08T00:54:01;96746.75;;;-3.65;82.01
8366;BME280;4220;42.502;24.188;2023-02-08T00:56:28;96731.38;;;-3.68;80.42
8366;BME280;4220;42.502;24.188;2023-02-08T00:58:55;96746.91;;;-3.68;81.28
8366;BME280;4220;42.502;24.188;2023-02-08T01:01:22;96749.59;;;-3.55;81.66
8366;BME280;4220;42.502;24.188;2023-02-08T01:03:49;96747.09;;;-3.57;81.53
8366;BME280;4220;42.502;24.188;2023-02-08T01:06:17;96755.03;;;-3.46;82.46
8366;BME280;4220;42.502;24.188;2023-02-08T01:08:45;96758.34;;;-3.29;82.35
8366;BME280;4220;42.502;24.188;2023-02-08T01:11:15;96758.69;;;-3.21;81.49
8366;BME280;4220;42.502;24.188;2023-02-08T01:13:43;96756.09;;;-3.21;81.51
8366;BME280;4220;42.502;24.188;2023-02-08T01:16:12;96748.16;;;-3.33;81.92
8366;BME280;4220;42.502;24.188;2023-02-08T01:18:40;96768.06;;;-3.33;83.40
8366;BME280;4220;42.502;24.188;2023-02-08T01:21:10;96762.75;;;-3.44;85.42
8366;BME280;4220;42.502;24.188;2023-02-08T01:23:37;96748.69;;;-3.82;88.99
8366;BME280;4220;42.502;24.188;2023-02-08T01:26:06;96758.22;;;-3.83;90.09
8366;BME280;4220;42.502;24.188;2023-02-08T01:28:34;96755.44;;;-3.66;90.70
8366;BME280;4220;42.502;24.188;2023-02-08T01:31:05;96759.66;;;-3.51;90.45
8366;BME280;4220;42.502;24.188;2023-02-08T01:33:32;96753.16;;;-3.29;89.62
8366;BME280;4220;42.502;24.188;2023-02-08T01:35:59;96756.75;;;-3.18;88.60
8366;BME280;4220;42.502;24.188;2023-02-08T01:38:26;96755.41;;;-3.11;87.31
8366;BME280;4220;42.502;24.188;2023-02-08T01:40:53;96758.44;;;-3.04;86.23
8366;BME280;4220;42.502;24.188;2023-02-08T01:43:24;96756.19;;;-2.96;85.57
8366;BME280;4220;42.502;24.188;2023-02-08T01:45:51;96758.19;;;-2.87;85.78
8366;BME280;4220;42.502;24.188;2023-02-08T01:48:21;96756.78;;;-2.79;85.37
8366;BME280;4220;42.502;24.188;2023-02-08T01:50:53;96760.53;;;-2.70;84.21
8366;BME280;4220;42.502;24.188;2023-02-08T01:53:22;96766.91;;;-2.61;83.81
8366;BME280;4220;42.502;24.188;2023-02-08T01:55:52;96773.47;;;-2.56;83.88
8366;BME280;4220;42.502;24.188;2023-02-08T01:58:23;96760.06;;;-2.50;82.68
8366;BME280;4220;42.502;24.188;2023-02-08T02:00:51;96722.91;;;-2.77;81.64
8366;BME280;4220;42.502;24.188;2023-02-08T02:03:19;96771.09;;;-2.46;81.02
8366;BME280;4220;42.502;24.188;2023-02-08T02:05:49;96775.03;;;-2.53;80.97
8366;BME280;4220;42.502;24.188;2023-02-08T02:08:17;96776.38;;;-2.48;81.69
8366;BME280;4220;42.502;24.188;2023-02-08T02:10:47;96771.94;;;-2.46;81.79
8366;BME280;4220;42.502;24.188;2023-02-08T02:13:17;96771.09;;;-2.46;82.58
8366;BME280;4220;42.502;24.188;2023-02-08T02:15:47;96769.31;;;-2.46;83.19
8366;BME280;4220;42.502;24.188;2023-02-08T02:18:19;96780.34;;;-2.42;83.05
8366;BME280;4220;42.502;24.188;2023-02-08T02:23:56;96772.44;;;-2.53;83.45
8366;BME280;4220;42.502;24.188;2023-02-08T02:30:15;96767.94;;;-2.64;84.08
8366;BME280;4220;42.502;24.188;2023-02-08T02:33:23;96763.53;;;-2.76;84.46
8366;BME280;4220;42.502;24.188;2023-02-08T02:35:56;96769.66;;;-2.77;84.06
8366;BME280;4220;42.502;24.188;2023-02-08T02:38:34;96763.91;;;-2.82;83.65
8366;BME280;4220;42.502;24.188;2023-02-08T02:41:08;96773.69;;;-2.86;82.88
8366;BME280;4220;42.502;24.188;2023-02-08T02:43:44;96777.94;;;-3.11;82.99
8366;BME280;4220;42.502;24.188;2023-02-08T02:46:18;96781.06;;;-3.06;81.81
8366;BME280;4220;42.502;24.188;2023-02-08T02:48:52;96775.00;;;-3.19;80.97
8366;BME280;4220;42.502;24.188;2023-02-08T02:51:26;96791.19;;;-3.16;79.09
8366;BME280;4220;42.502;24.188;2023-02-08T02:53:58;96783.72;;;-3.20;78.31
8366;BME280;4220;42.502;24.188;2023-02-08T02:56:30;96787.44;;;-3.24;78.19
8366;BME280;4220;42.502;24.188;2023-02-08T02:59:03;96793.91;;;-3.17;78.55
8366;BME280;4220;42.502;24.188;2023-02-08T03:01:31;96789.03;;;-3.09;76.97
8366;BME280;4220;42.502;24.188;2023-02-08T03:03:59;96796.09;;;-3.11;76.88
8366;BME280;4220;42.502;24.188;2023-02-08T03:06:36;96800.19;;;-3.07;76.67
8366;BME280;4220;42.502;24.188;2023-02-08T03:12:20;96815.78;;;-3.36;79.48
8366;BME280;4220;42.502;24.188;2023-02-08T03:14:57;96798.84;;;-3.41;81.24
8366;BME280;4220;42.502;24.188;2023-02-08T03:17:37;96815.44;;;-3.29;81.06
8366;BME280;4220;42.502;24.188;2023-02-08T03:20:11;96814.66;;;-3.32;81.35
8366;BME280;4220;42.502;24.188;2023-02-08T03:22:44;96773.41;;;-3.63;81.09
8366;BME280;4220;42.502;24.188;2023-02-08T03:25:16;96816.25;;;-3.43;81.81
8366;BME280;4220;42.502;24.188;2023-02-08T03:27:51;96807.03;;;-3.61;82.00
8366;BME280;4220;42.502;24.188;2023-02-08T03:30:26;96773.03;;;-3.99;82.99
8366;BME280;4220;42.502;24.188;2023-02-08T03:32:59;96828.88;;;-3.79;84.29
8366;BME280;4220;42.502;24.188;2023-02-08T03:35:32;96835.63;;;-3.63;84.47
8366;BME280;4220;42.502;24.188;2023-02-08T03:38:03;96835.16;;;-3.55;84.11
8366;BME280;4220;42.502;24.188;2023-02-08T03:40:34;96833.69;;;-3.59;83.63
8366;BME280;4220;42.502;24.188;2023-02-08T03:43:07;96834.34;;;-3.84;84.56
8366;BME280;4220;42.502;24.188;2023-02-08T03:45:39;96826.72;;;-4.01;86.23
8366;BME280;4220;42.502;24.188;2023-02-08T03:48:10;96851.50;;;-4.11;87.82
8366;BME280;4220;42.502;24.188;2023-02-08T03:50:41;96840.84;;;-4.21;88.87
8366;BME280;4220;42.502;24.188;2023-02-08T03:53:10;96836.56;;;-4.22;90.41
8366;BME280;4220;42.502;24.188;2023-02-08T03:55:38;96780.50;;;-4.67;91.01
8366;BME280;4220;42.502;24.188;2023-02-08T03:58:11;96835.72;;;-4.36;91.30
8366;BME280;4220;42.502;24.188;2023-02-08T04:00:44;96840.63;;;-4.32;91.29
8366;BME280;4220;42.502;24.188;2023-02-08T04:03:16;96842.50;;;-4.20;91.14
8366;BME280;4220;42.502;24.188;2023-02-08T04:05:46;96846.06;;;-4.07;90.72
8366;BME280;4220;42.502;24.188;2023-02-08T04:08:13;96843.34;;;-4.05;90.39
8366;BME280;4220;42.502;24.188;2023-02-08T04:10:40;96795.41;;;-4.26;89.77
8366;BME280;4220;42.502;24.188;2023-02-08T04:13:07;96840.59;;;-4.02;89.14
8366;BME280;4220;42.502;24.188;2023-02-08T04:15:34;96852.25;;;-3.95;88.35
8366;BME280;4220;42.502;24.188;2023-02-08T04:18:01;96849.38;;;-3.90;88.72
8366;BME280;4220;42.502;24.188;2023-02-08T04:20:28;96838.75;;;-4.00;88.44
8366;BME280;4220;42.502;24.188;2023-02-08T04:22:56;96804.94;;;-4.27;88.44
8366;BME280;4220;42.502;24.188;2023-02-08T04:25:23;96848.81;;;-3.96;89.12
8366;BME280;4220;42.502;24.188;2023-02-08T04:27:50;96844.31;;;-4.06;89.71
8366;BME280;4220;42.502;24.188;2023-02-08T04:30:17;96853.66;;;-3.89;91.81
8366;BME280;4220;42.502;24.188;2023-02-08T04:32:44;96852.47;;;-3.84;91.85
8366;BME280;4220;42.502;24.188;2023-02-08T04:35:11;96873.97;;;-3.68;90.37
8366;BME280;4220;42.502;24.188;2023-02-08T04:37:37;96876.19;;;-3.62;90.16
8366;BME280;4220;42.502;24.188;2023-02-08T04:40:06;96876.53;;;-3.68;90.37
8366;BME280;4220;42.502;24.188;2023-02-08T04:42:33;96887.94;;;-3.56;89.18
8366;BME280;4220;42.502;24.188;2023-02-08T04:45:00;96886.41;;;-3.59;87.78
8366;BME280;4220;42.502;24.188;2023-02-08T04:47:27;96888.03;;;-3.58;87.56
8366;BME280;4220;42.502;24.188;2023-02-08T04:49:54;96800.03;;;-4.17;87.03
8366;BME280;4220;42.502;24.188;2023-02-08T04:52:21;96893.78;;;-3.67;87.79
8366;BME280;4220;42.502;24.188;2023-02-08T04:54:48;96892.09;;;-3.68;87.53
8366;BME280;4220;42.502;24.188;2023-02-08T04:57:16;96898.41;;;-3.58;87.53
8366;BME280;4220;42.502;24.188;2023-02-08T04:59:43;96905.44;;;-3.74;85.91
8366;BME280;4220;42.502;24.188;2023-02-08T05:02:09;96902.31;;;-4.09;87.22
8366;BME280;4220;42.502;24.188;2023-02-08T05:04:36;96912.00;;;-4.12;88.87
8366;BME280;4220;42.502;24.188;2023-02-08T05:07:03;96904.94;;;-4.24;89.57
8366;BME280;4220;42.502;24.188;2023-02-08T05:09:30;96913.97;;;-4.31;90.43
8366;BME280;4220;42.502;24.188;2023-02-08T05:11:57;96859.19;;;-4.85;92.03
8366;BME280;4220;42.502;24.188;2023-02-08T05:14:25;96901.31;;;-4.51;94.46
8366;BME280;4220;42.502;24.188;2023-02-08T05:16:52;96913.41;;;-4.36;93.44
8366;BME280;4220;42.502;24.188;2023-02-08T05:19:18;96908.47;;;-4.41;92.62
8366;BME280;4220;42.502;24.188;2023-02-08T05:21:45;96917.19;;;-4.73;94.45
8366;BME280;4220;42.502;24.188;2023-02-08T05:24:12;96903.75;;;-4.95;96.09
8366;BME280;4220;42.502;24.188;2023-02-08T05:26:39;96915.94;;;-5.13;97.87
8366;BME280;4220;42.502;24.188;2023-02-08T05:29:06;96929.94;;;-5.17;99.39
8366;BME280;4220;42.502;24.188;2023-02-08T05:31:34;96935.97;;;-5.01;99.71
8366;BME280;4220;42.502;24.188;2023-02-08T05:34:01;96940.16;;;-4.83;100.00
8366;BME280;4220;42.502;24.188;2023-02-08T05:36:28;96920.69;;;-4.74;100.00
8366;BME280;4220;42.502;24.188;2023-02-08T05:38:55;96944.41;;;-4.50;99.92
8366;BME280;4220;42.502;24.188;2023-02-08T05:41:22;96944.41;;;-4.50;97.96
8366;BME280;4220;42.502;24.188;2023-02-08T05:43:49;96934.66;;;-4.77;98.09
8366;BME280;4220;42.502;24.188;2023-02-08T05:46:16;96947.59;;;-4.92;99.93
8366;BME280;4220;42.502;24.188;2023-02-08T05:48:44;96953.09;;;-4.83;99.87
8366;BME280;4220;42.502;24.188;2023-02-08T05:51:11;96952.00;;;-4.79;98.36
8366;BME280;4220;42.502;24.188;2023-02-08T05:53:38;96954.19;;;-4.55;98.39
8366;BME280;4220;42.502;24.188;2023-02-08T05:56:05;96949.91;;;-4.41;97.61
8366;BME280;4220;42.502;24.188;2023-02-08T05:58:32;96951.97;;;-4.32;97.04
8366;BME280;4220;42.502;24.188;2023-02-08T06:00:59;96955.47;;;-4.17;96.07
8366;BME280;4220;42.502;24.188;2023-02-08T06:03:26;96941.34;;;-4.12;95.16
8366;BME280;4220;42.502;24.188;2023-02-08T06:05:55;96940.38;;;-3.95;94.48
8366;BME280;4220;42.502;24.188;2023-02-08T06:08:25;96945.03;;;-3.86;94.08
8366;BME280;4220;42.502;24.188;2023-02-08T06:10:52;96951.59;;;-3.94;92.16
8366;BME280;4220;42.502;24.188;2023-02-08T06:13:19;96959.75;;;-4.16;92.76
8366;BME280;4220;42.502;24.188;2023-02-08T06:15:46;96954.78;;;-4.05;92.15
8366;BME280;4220;42.502;24.188;2023-02-08T06:18:13;96957.44;;;-3.91;91.10
8366;BME280;4220;42.502;24.188;2023-02-08T06:20:40;96967.84;;;-3.77;91.02
8366;BME280;4220;42.502;24.188;2023-02-08T06:23:08;96964.06;;;-3.71;89.80
8366;BME280;4220;42.502;24.188;2023-02-08T06:25:35;96973.63;;;-3.58;89.34
8366;BME280;4220;42.502;24.188;2023-02-08T06:28:02;96967.88;;;-3.49;87.96
8366;BME280;4220;42.502;24.188;2023-02-08T06:30:29;96968.44;;;-3.44;87.22
8366;BME280;4220;42.502;24.188;2023-02-08T06:32:56;96971.09;;;-3.29;86.44
8366;BME280;4220;42.502;24.188;2023-02-08T06:35:23;96974.59;;;-3.16;86.03
8366;BME280;4220;42.502;24.188;2023-02-08T06:37:49;96976.56;;;-3.06;85.35
8366;BME280;4220;42.502;24.188;2023-02-08T06:40:18;96964.03;;;-2.99;84.53
8366;BME280;4220;42.502;24.188;2023-02-08T06:42:45;96970.59;;;-2.80;82.95
8366;BME280;4220;42.502;24.188;2023-02-08T06:45:12;96963.06;;;-2.70;81.64
8366;BME280;4220;42.502;24.188;2023-02-08T06:47:39;96978.66;;;-2.56;80.39
8366;BME280;4220;42.502;24.188;2023-02-08T06:50:06;96980.53;;;-2.58;80.06
8366;BME280;4220;42.502;24.188;2023-02-08T06:52:33;96993.84;;;-2.50;79.85
8366;BME280;4220;42.502;24.188;2023-02-08T06:55:01;96953.88;;;-2.61;79.39
8366;BME280;4220;42.502;24.188;2023-02-08T06:57:30;96971.47;;;-2.38;79.34
8366;BME280;4220;42.502;24.188;2023-02-08T06:59:56;96980.31;;;-2.28;77.27
8366;BME280;4220;42.502;24.188;2023-02-08T07:02:23;96972.84;;;-2.33;76.47
8366;BME280;4220;42.502;24.188;2023-02-08T07:04:50;96986.72;;;-2.20;75.86
8366;BME280;4220;42.502;24.188;2023-02-08T07:07:17;96983.88;;;-2.03;74.83
8366;BME280;4220;42.502;24.188;2023-02-08T07:09:44;96976.22;;;-1.91;72.83
8366;BME280;4220;42.502;24.188;2023-02-08T07:12:11;96959.84;;;-2.06;71.97
8366;BME280;4220;42.502;24.188;2023-02-08T07:14:41;96968.34;;;-2.17;73.76
8366;BME280;4220;42.502;24.188;2023-02-08T07:17:09;96978.38;;;-2.25;74.07
8366;BME280;4220;42.502;24.188;2023-02-08T07:19:35;96980.75;;;-2.34;75.19
8366;BME280;4220;42.502;24.188;2023-02-08T07:22:02;96977.34;;;-2.49;76.20
8366;BME280;4220;42.502;24.188;2023-02-08T07:24:33;96975.66;;;-2.50;75.49
8366;BME280;4220;42.502;24.188;2023-02-08T07:27:00;96975.94;;;-2.54;75.79
8366;BME280;4220;42.502;24.188;2023-02-08T07:29:27;96983.91;;;-2.43;75.73
8366;BME280;4220;42.502;24.188;2023-02-08T07:31:56;96982.59;;;-2.50;73.31
8366;BME280;4220;42.502;24.188;2023-02-08T07:34:23;96987.31;;;-2.29;72.89
8366;BME280;4220;42.502;24.188;2023-02-08T07:36:49;96983.41;;;-2.22;71.93
8366;BME280;4220;42.502;24.188;2023-02-08T07:39:16;96993.19;;;-2.13;71.06
8366;BME280;4220;42.502;24.188;2023-02-08T07:41:43;96998.88;;;-1.93;71.61
8366;BME280;4220;42.502;24.188;2023-02-08T07:44:10;96991.63;;;-1.88;70.78
8366;BME280;4220;42.502;24.188;2023-02-08T07:46:37;96984.97;;;-1.92;70.34
8366;BME280;4220;42.502;24.188;2023-02-08T07:49:06;96992.34;;;-1.99;70.51
8366;BME280;4220;42.502;24.188;2023-02-08T07:51:33;96995.78;;;-2.13;71.92
8366;BME280;4220;42.502;24.188;2023-02-08T07:54:00;96995.59;;;-2.10;73.02
8366;BME280;4220;42.502;24.188;2023-02-08T07:56:27;96983.88;;;-2.03;72.14
8366;BME280;4220;42.502;24.188;2023-02-08T07:58:54;96931.44;;;-2.36;71.49
8366;BME280;4220;42.502;24.188;2023-02-08T08:01:21;96983.63;;;-1.85;70.47
8366;BME280;4220;42.502;24.188;2023-02-08T08:03:48;96988.19;;;-1.62;68.42
8366;BME280;4220;42.502;24.188;2023-02-08T08:06:16;97002.03;;;-1.37;67.23
8366;BME280;4220;42.502;24.188;2023-02-08T08:08:43;97007.69;;;-1.05;66.07
8366;BME280;4220;42.502;24.188;2023-02-08T08:11:11;97007.81;;;-0.81;65.19
8366;BME280;4220;42.502;24.188;2023-02-08T08:13:39;97004.22;;;-0.42;63.34
8366;BME280;4220;42.502;24.188;2023-02-08T08:16:06;97012.75;;;-0.04;60.84
8366;BME280;4220;42.502;24.188;2023-02-08T08:18:33;97014.59;;;0.30;59.56
8366;BME280;4220;42.502;24.188;2023-02-08T08:21:00;97018.63;;;0.58;58.54
8366;BME280;4220;42.502;24.188;2023-02-08T08:23:28;96995.91;;;0.71;57.40
8366;BME280;4220;42.502;24.188;2023-02-08T08:25:57;97021.13;;;1.05;56.41
8366;BME280;4220;42.502;24.188;2023-02-08T08:28:24;97018.41;;;0.96;55.85
8366;BME280;4220;42.502;24.188;2023-02-08T08:30:51;97029.56;;;1.09;55.98
8366;BME280;4220;42.502;24.188;2023-02-08T08:33:17;97019.94;;;1.09;55.27
8366;BME280;4220;42.502;24.188;2023-02-08T08:35:45;97045.16;;;1.10;54.99
8366;BME280;4220;42.502;24.188;2023-02-08T08:38:12;97029.78;;;1.06;55.07
8366;BME280;4220;42.502;24.188;2023-02-08T08:40:40;97040.16;;;1.18;55.00
8366;BME280;4220;42.502;24.188;2023-02-08T08:43:07;97035.97;;;1.16;54.81
8366;BME280;4220;42.502;24.188;2023-02-08T08:45:34;97041.00;;;1.19;54.72
8366;BME280;4220;42.502;24.188;2023-02-08T08:48:02;97040.53;;;1.25;53.88
8366;BME280;4220;42.502;24.188;2023-02-08T08:50:29;96987.97;;;1.06;53.88
8366;BME280;4220;42.502;24.188;2023-02-08T08:52:56;97046.72;;;1.46;54.18
8366;BME280;4220;42.502;24.188;2023-02-08T08:55:23;97046.97;;;1.54;54.01
8366;BME280;4220;42.502;24.188;2023-02-08T08:57:52;97040.31;;;1.61;54.24
8366;BME280;4220;42.502;24.188;2023-02-08T09:00:19;97052.91;;;1.67;53.54
8366;BME280;4220;42.502;24.188;2023-02-08T09:02:46;97047.22;;;1.73;53.91
8366;BME280;4220;42.502;24.188;2023-02-08T09:05:13;97043.16;;;1.80;52.87
8366;BME280;4220;42.502;24.188;2023-02-08T09:07:40;96965.69;;;1.46;52.37
8366;BME280;4220;42.502;24.188;2023-02-08T09:10:07;97048.88;;;1.96;52.83
8366;BME280;4220;42.502;24.188;2023-02-08T09:12:34;97048.97;;;2.06;52.06
8366;BME280;4220;42.502;24.188;2023-02-08T09:15:02;97044.31;;;2.10;51.70
8366;BME280;4220;42.502;24.188;2023-02-08T09:17:29;97053.13;;;2.09;51.65
8366;BME280;4220;42.502;24.188;2023-02-08T09:19:56;97059.28;;;2.19;52.22
8366;BME280;4220;42.502;24.188;2023-02-08T09:22:23;97004.13;;;1.99;51.27
8366;BME280;4220;42.502;24.188;2023-02-08T09:24:52;97060.75;;;2.54;49.80
8366;BME280;4220;42.502;24.188;2023-02-08T09:27:19;97066.38;;;2.39;49.11
8366;BME280;4220;42.502;24.188;2023-02-08T09:29:45;97062.06;;;2.49;50.02
8366;BME280;4220;42.502;24.188;2023-02-08T09:32:14;97065.81;;;2.67;49.61
8366;BME280;4220;42.502;24.188;2023-02-08T09:34:40;97067.06;;;2.84;49.56
8366;BME280;4220;42.502;24.188;2023-02-08T09:37:07;97062.06;;;2.81;48.65
8366;BME280;4220;42.502;24.188;2023-02-08T09:39:34;97064.19;;;2.55;48.69
8366;BME280;4220;42.502;24.188;2023-02-08T09:42:13;97066.34;;;2.50;49.48
8366;BME280;4220;42.502;24.188;2023-02-08T09:44:52;97056.22;;;2.56;49.66
8366;BME280;4220;42.502;24.188;2023-02-08T09:47:27;97059.44;;;2.60;49.07
8366;BME280;4220;42.502;24.188;2023-02-08T09:49:57;97054.16;;;2.28;49.89
8366;BME280;4220;42.502;24.188;2023-02-08T09:52:31;97055.00;;;2.07;50.55
8366;BME280;4220;42.502;24.188;2023-02-08T09:55:02;97059.94;;;1.89;51.01
8366;BME280;4220;42.502;24.188;2023-02-08T09:57:31;97044.09;;;1.79;51.32
8366;BME280;4220;42.502;24.188;2023-02-08T10:00:02;97058.97;;;1.79;51.03
8366;BME280;4220;42.502;24.188;2023-02-08T10:02:33;97055.53;;;1.78;51.62
8366;BME280;4220;42.502;24.188;2023-02-08T10:05:02;97055.31;;;1.81;50.46
8366;BME280;4220;42.502;24.188;2023-02-08T10:07:30;97053.38;;;1.83;50.19
8366;BME280;4220;42.502;24.188;2023-02-08T10:09:59;97049.81;;;1.73;49.21
8366;BME280;4220;42.502;24.188;2023-02-08T10:12:37;97042.09;;;1.72;49.63
8366;BME280;4220;42.502;24.188;2023-02-08T10:15:13;97000.03;;;1.42;49.43
8366;BME280;4220;42.502;24.188;2023-02-08T10:18:28;97049.56;;;1.87;49.35
8366;BME280;4220;42.502;24.188;2023-02-08T10:21:12;97039.16;;;2.19;48.19
8366;BME280;4220;42.502;24.188;2023-02-08T10:23:59;97045.69;;;2.36;47.29
8366;BME280;4220;42.502;24.188;2023-02-08T10:26:33;97044.47;;;2.40;47.34
8366;BME280;4220;42.502;24.188;2023-02-08T10:29:20;97048.31;;;2.36;46.96
8366;BME280;4220;42.502;24.188;2023-02-08T10:32:02;97040.94;;;2.30;47.20
8366;BME280;4220;42.502;24.188;2023-02-08T10:34:40;97036.44;;;2.21;47.41
8366;BME280;4220;42.502;24.188;2023-02-08T10:37:12;97020.75;;;2.21;47.17
8366;BME280;4220;42.502;24.188;2023-02-08T10:39:39;97040.69;;;2.33;47.92
8366;BME280;4220;42.502;24.188;2023-02-08T10:42:12;97037.84;;;2.25;48.32
8366;BME280;4220;42.502;24.188;2023-02-08T10:44:49;97032.00;;;2.32;48.18
8366;BME280;4220;42.502;24.188;2023-02-08T10:47:31;97033.72;;;2.54;47.02
8366;BME280;4220;42.502;24.188;2023-02-08T10:50:02;97030.69;;;2.70;47.26
8366;BME280;4220;42.502;24.188;2023-02-08T10:52:32;97035.22;;;2.88;46.49
8366;BME280;4220;42.502;24.188;2023-02-08T10:54:59;97030.06;;;2.98;46.60
8366;BME280;4220;42.502;24.188;2023-02-08T10:57:29;97033.75;;;2.95;46.56
8366;BME280;4220;42.502;24.188;2023-02-08T11:00:00;97040.31;;;2.69;47.19
8366;BME280;4220;42.502;24.188;2023-02-08T11:02:31;97040.72;;;2.53;47.83
8366;BME280;4220;42.502;24.188;2023-02-08T11:05:02;97001.75;;;2.39;48.53
8366;BME280;4220;42.502;24.188;2023-02-08T11:07:30;97028.13;;;2.79;47.95
8366;BME280;4220;42.502;24.188;2023-02-08T11:10:14;97030.91;;;2.78;47.28
8366;BME280;4220;42.502;24.188;2023-02-08T11:12:42;97041.69;;;2.84;47.36
8366;BME280;4220;42.502;24.188;2023-02-08T11:15:24;97036.84;;;2.80;47.97
8366;BME280;4220;42.502;24.188;2023-02-08T11:17:57;97040.09;;;2.72;47.76
8366;BME280;4220;42.502;24.188;2023-02-08T11:20:31;97031.06;;;2.65;47.83
8366;BME280;4220;42.502;24.188;2023-02-08T11:22:59;97038.16;;;2.74;48.23
8366;BME280;4220;42.502;24.188;2023-02-08T11:25:35;97039.31;;;2.81;47.92
8366;BME280;4220;42.502;24.188;2023-02-08T11:28:03;97026.63;;;2.97;48.08
8366;BME280;4220;42.502;24.188;2023-02-08T11:30:30;97040.06;;;3.55;46.13
8366;BME280;4220;42.502;24.188;2023-02-08T11:33:13;97036.97;;;4.10;45.29
8366;BME280;4220;42.502;24.188;2023-02-08T11:35:52;97037.22;;;4.66;44.06
8366;BME280;4220;42.502;24.188;2023-02-08T11:38:20;97031.38;;;4.62;42.55
8366;BME280;4220;42.502;24.188;2023-02-08T11:40:54;97021.59;;;4.74;40.65
8366;BME280;4220;42.502;24.188;2023-02-08T11:43:24;97036.63;;;4.82;40.12
8366;BME280;4220;42.502;24.188;2023-02-08T11:45:53;96952.44;;;3.67;41.67
8366;BME280;4220;42.502;24.188;2023-02-08T11:48:23;97015.59;;;4.34;41.27
8366;BME280;4220;42.502;24.188;2023-02-08T11:50:55;97011.19;;;4.53;40.15
8366;BME280;4220;42.502;24.188;2023-02-08T11:53:26;97020.34;;;4.69;39.24
8366;BME280;4220;42.502;24.188;2023-02-08T11:56:02;97025.13;;;5.11;38.91
8366;BME280;4220;42.502;24.188;2023-02-08T11:58:30;97028.94;;;5.46;37.86
8366;BME280;4220;42.502;24.188;2023-02-08T12:00:59;97027.28;;;5.54;34.98
8366;BME280;4220;42.502;24.188;2023-02-08T12:03:31;97026.88;;;5.49;34.04
8366;BME280;4220;42.502;24.188;2023-02-08T12:06:15;97015.94;;;5.90;34.30
8366;BME280;4220;42.502;24.188;2023-02-08T12:08:53;97014.50;;;6.50;33.47
8366;BME280;4220;42.502;24.188;2023-02-08T12:11:26;97015.69;;;6.91;32.51
8366;BME280;4220;42.502;24.188;2023-02-08T12:14:02;97020.56;;;7.21;31.55
8366;BME280;4220;42.502;24.188;2023-02-08T12:16:58;97019.56;;;7.66;31.05
8366;BME280;4220;42.502;24.188;2023-02-08T12:22:30;97021.50;;;7.89;30.63
8366;BME280;4220;42.502;24.188;2023-02-08T12:25:09;97020.66;;;7.89;30.11
8366;BME280;4220;42.502;24.188;2023-02-08T12:27:45;97020.53;;;7.90;30.43
8366;BME280;4220;42.502;24.188;2023-02-08T12:30:21;97020.88;;;7.70;29.96
8366;BME280;4220;42.502;24.188;2023-02-08T12:35:57;97033.88;;;6.94;31.04
8366;BME280;4220;42.502;24.188;2023-02-08T12:38:41;97021.09;;;6.37;31.47
8366;BME280;4220;42.502;24.188;2023-02-08T12:41:31;96983.09;;;5.48;31.82
8366;BME280;4220;42.502;24.188;2023-02-08T12:44:03;97029.56;;;5.01;32.90
8366;BME280;4220;42.502;24.188;2023-02-08T12:46:47;97028.06;;;4.70;33.08
8366;BME280;4220;42.502;24.188;2023-02-08T12:49:39;96989.34;;;4.34;34.05
8366;BME280;4220;42.502;24.188;2023-02-08T12:52:22;97031.09;;;4.46;34.25
8366;BME280;4220;42.502;24.188;2023-02-08T12:54:56;97037.97;;;4.28;34.02
8366;BME280;4220;42.502;24.188;2023-02-08T12:57:27;97032.72;;;4.19;34.52
8366;BME280;4220;42.502;24.188;2023-02-08T12:59:57;97019.53;;;4.00;34.98
8366;BME280;4220;42.502;24.188;2023-02-08T13:02:30;97030.38;;;3.76;35.24
8366;BME280;4220;42.502;24.188;2023-02-08T13:05:02;97034.03;;;3.34;35.68
8366;BME280;4220;42.502;24.188;2023-02-08T13:07:33;97040.25;;;3.12;34.28
8366;BME280;4220;42.502;24.188;2023-02-08T13:10:07;97041.56;;;3.27;33.66
8366;BME280;4220;42.502;24.188;2023-02-08T13:12:41;97041.94;;;4.13;33.55
8366;BME280;4220;42.502;24.188;2023-02-08T13:15:14;97035.13;;;5.08;32.45
8366;BME280;4220;42.502;24.188;2023-02-08T13:17:46;97025.53;;;5.82;31.30
8366;BME280;4220;42.502;24.188;2023-02-08T13:20:27;97039.22;;;6.22;31.18
8366;BME280;4220;42.502;24.188;2023-02-08T13:22:58;97045.06;;;6.61;29.67
8366;BME280;4220;42.502;24.188;2023-02-08T13:25:30;97038.09;;;6.87;29.57
8366;BME280;4220;42.502;24.188;2023-02-08T13:28:02;97045.09;;;7.40;29.02
8366;BME280;4220;42.502;24.188;2023-02-08T13:30:31;97041.88;;;7.71;27.56
8366;BME280;4220;42.502;24.188;2023-02-08T13:33:06;97047.06;;;7.81;27.53
8366;BME280;4220;42.502;24.188;2023-02-08T13:35:38;97029.47;;;7.64;27.47
8366;BME280;4220;42.502;24.188;2023-02-08T13:38:15;97052.31;;;7.55;27.59
8366;BME280;4220;42.502;24.188;2023-02-08T13:40:45;97053.13;;;7.30;27.57
8366;BME280;4220;42.502;24.188;2023-02-08T13:43:23;97057.06;;;7.08;27.25
8366;BME280;4220;42.502;24.188;2023-02-08T13:45:52;97046.06;;;6.95;27.53